METAR Formatted Surface Weather Observation
Issued by NWS

Home | Current Version | Previous Version | Text Only | Print | Product List | Glossary On
Versions: 1 2 3
000
SPZS31 NSTU 290706
MTRSPP
SPECI NSTU 290705Z 30007KT 1/2SM +SHRA BKN014 OVC035 26/24 A2966=


USA.gov is the U.S. government's official web portal to all federal, state and local government web resources and services.